Time;durP1;ratioP1;P1;durP2;ratioP2;P2;SDS_P1;SDS_P2;PMS_P1;PMS_P2;Temp;Humidity;BMP_temperature;BMP_pressure;BME280_temperature;BME280_humidity;BME280_pressure;Samples;Min_cycle;Max_cycle;Signal;HPM_P1;HPM_P2
2022/05/05 00:01:59;;;;;;;18.17;12.10;;;;;;;9.40;87.78;101937.09;5087847;28;20024;-59
2022/05/05 00:04:25;;;;;;;15.82;10.80;;;;;;;9.39;88.42;101943.97;5088169;28;20394;-59
2022/05/05 00:06:50;;;;;;;14.63;10.43;;;;;;;9.37;87.75;101941.28;5088139;28;20035;-59
2022/05/05 00:09:16;;;;;;;13.63;10.55;;;;;;;9.39;87.69;101943.09;5087436;28;20016;-59
2022/05/05 00:14:28;;;;;;;13.73;10.43;;;;;;;9.36;87.62;101944.69;5088252;28;20085;-59
2022/05/05 00:17:07;;;;;;;16.15;10.45;;;;;;;9.34;87.70;101945.41;5088135;28;20490;-58
2022/05/05 00:19:34;;;;;;;18.15;10.32;;;;;;;9.30;88.43;101944.34;5088273;28;20460;-58
2022/05/05 00:22:00;;;;;;;15.13;10.05;;;;;;;9.28;88.55;101946.00;5087883;28;20072;-59
2022/05/05 00:24:25;;;;;;;14.90;10.65;;;;;;;9.24;89.10;101950.09;5087434;28;20535;-59
2022/05/05 00:26:50;;;;;;;17.63;10.90;;;;;;;9.21;89.56;101943.88;5087784;28;20403;-58
2022/05/05 00:29:16;;;;;;;13.25;10.75;;;;;;;9.20;89.47;101947.25;5087665;28;20498;-59
2022/05/05 00:31:42;;;;;;;12.07;9.48;;;;;;;9.22;89.07;101948.22;5087746;28;20048;-57
2022/05/05 00:34:08;;;;;;;11.68;10.27;;;;;;;9.21;88.95;101943.88;5087220;28;20024;-57
2022/05/05 00:36:33;;;;;;;11.50;10.40;;;;;;;9.22;89.01;101950.81;5087788;28;20035;-58
2022/05/05 00:38:58;;;;;;;13.77;10.63;;;;;;;9.19;89.54;101938.59;5088075;28;20016;-59
2022/05/05 00:41:24;;;;;;;14.98;10.63;;;;;;;9.17;nan;101939.31;5087646;28;20021;-59
2022/05/05 00:43:49;;;;;;;16.35;10.70;;;;;;;9.15;89.38;101943.50;5087463;28;20059;-59
2022/05/05 00:46:15;;;;;;;12.38;10.77;;;;;;;9.10;89.60;101943.28;5087095;28;20032;-59
2022/05/05 00:48:42;;;;;;;15.32;11.15;;;;;;;9.08;89.59;101932.84;5087588;28;20032;-59
2022/05/05 00:51:08;;;;;;;14.75;10.43;;;;;;;9.06;89.69;101929.28;5087833;28;20051;-58
2022/05/05 00:53:34;;;;;;;13.52;10.05;;;;;;;9.01;89.44;101938.47;5087595;28;20081;-58
2022/05/05 00:56:05;;;;;;;15.48;10.90;;;;;;;8.97;90.07;101936.50;5091206;28;20056;-59
2022/05/05 00:58:31;;;;;;;13.60;10.50;;;;;;;8.92;90.28;101935.38;5090539;28;20063;-58
2022/05/05 01:01:00;;;;;;;13.50;10.70;;;;;;;8.88;91.09;101935.19;5091015;28;20020;-59
2022/05/05 01:03:25;;;;;;;12.35;10.38;;;;;;;8.87;91.28;101937.66;5091037;28;20812;-59
2022/05/05 01:05:50;;;;;;;18.90;11.25;;;;;;;8.82;92.39;101941.69;5090660;28;20035;-58
2022/05/05 01:08:15;;;;;;;14.60;10.65;;;;;;;8.78;92.70;101938.03;5090895;28;20042;-58
2022/05/05 01:10:41;;;;;;;12.82;10.57;;;;;;;8.74;92.43;101944.72;5091481;28;20062;-59
2022/05/05 01:13:06;;;;;;;16.60;10.98;;;;;;;8.69;92.83;101943.56;5091122;28;20031;-59
2022/05/05 01:15:34;;;;;;;14.70;10.65;;;;;;;8.73;92.95;101936.88;5090464;28;20491;-59
2022/05/05 01:17:59;;;;;;;17.42;11.07;;;;;;;8.70;92.97;101928.97;5091311;28;20043;-58
2022/05/05 01:20:25;;;;;;;14.88;9.63;;;;;;;8.70;93.92;101940.22;5091221;28;20027;-59
2022/05/05 01:22:50;;;;;;;14.05;10.85;;;;;;;8.70;93.71;101939.31;5090877;28;20036;-59
2022/05/05 01:28:13;;;;;;;17.60;11.57;;;;;;;8.68;92.22;101935.75;5091131;28;20621;-59
2022/05/05 01:30:40;;;;;;;13.50;10.93;;;;;;;8.70;92.69;101934.13;5090915;28;20016;-59
2022/05/05 01:33:20;;;;;;;14.68;10.93;;;;;;;8.65;93.13;101932.16;5091170;28;20041;-58
2022/05/05 01:35:47;;;;;;;14.77;10.00;;;;;;;8.63;92.53;101933.78;5090815;28;20035;-57
2022/05/05 01:38:15;;;;;;;12.25;10.95;;;;;;;8.59;93.08;101928.34;5090549;28;20044;-59
2022/05/05 01:40:41;;;;;;;12.30;10.88;;;;;;;8.59;93.09;101937.00;5090843;28;20323;-59
2022/05/05 01:43:07;;;;;;;12.32;10.85;;;;;;;8.61;93.05;101937.09;5090406;28;20103;-58
2022/05/05 01:45:33;;;;;;;14.68;10.68;;;;;;;8.59;92.90;101936.09;5090576;28;20115;-59
2022/05/05 01:47:59;;;;;;;14.98;10.35;;;;;;;8.55;93.47;101940.16;5090341;28;20020;-59
2022/05/05 01:50:25;;;;;;;16.90;11.77;;;;;;;8.50;93.31;101936.44;5090362;28;20024;-59
2022/05/05 01:52:51;;;;;;;15.43;11.20;;;;;;;8.48;94.50;101935.44;5089839;28;20032;-59
2022/05/05 01:55:16;;;;;;;16.33;11.45;;;;;;;8.46;94.51;101934.47;5090111;28;20473;-57
2022/05/05 01:57:42;;;;;;;12.30;10.90;;;;;;;8.47;94.78;101936.25;5090031;28;20032;-59
2022/05/05 02:00:08;;;;;;;12.52;11.15;;;;;;;8.46;94.72;101939.63;5090660;28;20050;-58
2022/05/05 02:02:33;;;;;;;14.43;11.73;;;;;;;8.49;94.83;101937.25;5090448;28;20062;-59
2022/05/05 02:04:58;;;;;;;14.65;12.20;;;;;;;8.50;95.55;101937.31;5089722;28;20122;-59
2022/05/05 02:07:24;;;;;;;13.00;11.40;;;;;;;8.52;94.94;101940.91;5089735;28;20016;-58
2022/05/05 02:09:49;;;;;;;14.88;11.77;;;;;;;8.55;94.91;101939.25;5090073;28;20038;-59
2022/05/05 02:12:14;;;;;;;14.32;11.70;;;;;;;8.57;94.40;101937.69;5089889;28;20020;-59
2022/05/05 02:14:39;;;;;;;13.43;11.88;;;;;;;8.57;94.78;101945.44;5089502;28;20035;-58
2022/05/05 02:17:05;;;;;;;12.85;11.00;;;;;;;8.60;95.32;101943.06;5089352;28;20019;-59
2022/05/05 02:19:31;;;;;;;15.57;11.45;;;;;;;8.60;96.41;101937.91;5089388;28;20063;-58
2022/05/05 02:21:56;;;;;;;14.00;11.10;;;;;;;8.63;96.82;101943.25;5089608;28;20020;-58
2022/05/05 02:24:21;;;;;;;13.90;11.27;;;;;;;8.68;95.83;101940.91;5089689;28;20149;-58
2022/05/05 02:26:47;;;;;;;13.75;11.73;;;;;;;8.69;95.24;101947.88;5089854;28;20106;-59
2022/05/05 02:29:12;;;;;;;12.30;11.05;;;;;;;8.69;94.87;101942.72;5089319;28;20043;-59
2022/05/05 02:31:37;;;;;;;12.90;10.07;;;;;;;8.69;95.11;101947.88;5088872;28;20063;-58
2022/05/05 02:34:08;;;;;;;13.95;11.02;;;;;;;8.68;95.62;101949.56;5089999;28;20452;-58
2022/05/05 02:39:21;;;;;;;13.70;10.52;;;;;;;8.73;94.69;101947.22;5089402;28;20039;-59
2022/05/05 02:41:46;;;;;;;16.85;10.68;;;;;;;8.76;94.82;101937.09;5089696;28;20107;-59
2022/05/05 02:44:11;;;;;;;12.63;11.00;;;;;;;8.79;94.69;101944.09;5088759;28;20395;-57
2022/05/05 02:46:36;;;;;;;15.10;11.55;;;;;;;8.78;95.47;101943.22;5089453;28;20069;-59
2022/05/05 02:49:02;;;;;;;13.50;10.88;;;;;;;8.79;94.45;101949.28;5089302;28;20023;-58
2022/05/05 02:51:27;;;;;;;13.73;10.57;;;;;;;8.79;95.62;101949.28;5089251;28;20032;-59
2022/05/05 02:56:41;;;;;;;12.90;10.90;;;;;;;8.79;96.02;101945.00;5078374;28;20124;-59
2022/05/05 02:59:06;;;;;;;13.57;10.68;;;;;;;8.79;94.78;101950.19;5088530;28;20052;-59
2022/05/05 03:01:32;;;;;;;11.88;10.60;;;;;;;8.78;94.05;101943.22;5087521;28;20024;-59
2022/05/05 03:03:58;;;;;;;12.18;9.73;;;;;;;8.79;94.54;101950.19;5089040;28;20020;-59
2022/05/05 03:06:23;;;;;;;12.45;11.00;;;;;;;8.79;94.94;101945.00;5088290;28;20043;-59
2022/05/05 03:08:48;;;;;;;13.00;11.10;;;;;;;8.80;94.38;101941.59;5088810;28;20241;-59
2022/05/05 03:11:13;;;;;;;14.55;10.60;;;;;;;8.84;94.49;101947.84;5088811;28;20027;-59
2022/05/05 03:13:39;;;;;;;15.48;11.95;;;;;;;8.83;95.04;101951.25;5088585;28;20032;-59
2022/05/05 03:16:04;;;;;;;16.60;12.32;;;;;;;8.82;94.50;101950.34;5088122;28;20024;-59
2022/05/05 03:18:30;;;;;;;13.15;10.55;;;;;;;8.78;94.00;101953.53;5087836;28;20129;-57
2022/05/05 03:20:55;;;;;;;14.98;11.90;;;;;;;8.71;94.46;101948.81;5088533;28;20081;-58
2022/05/05 03:23:21;;;;;;;13.45;10.45;;;;;;;8.64;94.90;101948.50;5088234;28;20388;-57
2022/05/05 03:25:46;;;;;;;15.82;10.40;;;;;;;8.61;94.89;101950.91;5089039;28;20099;-59
2022/05/05 03:28:11;;;;;;;12.18;10.93;;;;;;;8.58;95.86;101948.13;5088455;28;20073;-58
2022/05/05 03:30:37;;;;;;;12.38;10.80;;;;;;;8.56;96.16;101949.75;5088193;28;20497;-58
2022/05/05 03:33:03;;;;;;;13.07;10.93;;;;;;;8.55;96.22;101955.66;5088228;28;20048;-59
2022/05/05 03:35:28;;;;;;;14.55;11.45;;;;;;;8.51;96.70;101957.19;5088296;28;20032;-59
2022/05/05 03:37:53;;;;;;;16.20;11.55;;;;;;;8.48;97.69;101953.53;5088779;28;20024;-59
2022/05/05 03:40:19;;;;;;;16.35;12.15;;;;;;;8.46;97.78;101955.13;5087952;28;20023;-59
2022/05/05 03:42:44;;;;;;;13.40;11.70;;;;;;;8.44;98.60;101954.16;5088371;28;20499;-57
2022/05/05 03:45:09;;;;;;;14.57;11.45;;;;;;;8.42;97.79;101956.63;5088307;28;20380;-59
2022/05/05 03:47:34;;;;;;;17.55;12.15;;;;;;;8.40;98.39;101959.13;5088386;28;20047;-57
2022/05/05 03:50:00;;;;;;;14.93;12.20;;;;;;;8.38;98.44;101968.47;5088404;28;20028;-59
2022/05/05 03:52:25;;;;;;;15.82;11.90;;;;;;;8.40;98.04;101963.44;5088486;28;20032;-59
2022/05/05 03:54:50;;;;;;;14.20;12.30;;;;;;;8.38;98.06;101965.91;5087364;28;20035;-58
2022/05/05 03:57:16;;;;;;;13.52;11.02;;;;;;;8.34;98.25;101970.81;5086993;28;20028;-57
2022/05/05 03:59:41;;;;;;;13.98;11.35;;;;;;;8.28;99.02;101973.91;5086370;28;20032;-57
2022/05/05 04:02:06;;;;;;;14.88;13.23;;;;;;;8.26;99.15;101967.75;5086411;28;20031;-59
2022/05/05 04:04:31;;;;;;;15.88;11.85;;;;;;;8.26;99.68;101970.34;5086786;28;20096;-59
2022/05/05 04:06:57;;;;;;;17.02;12.15;;;;;;;8.27;99.52;101972.13;5085567;28;20024;-58
2022/05/05 04:09:22;;;;;;;15.88;11.48;;;;;;;8.30;100.00;101969.72;5085852;28;20028;-58
2022/05/05 04:11:47;;;;;;;15.13;11.57;;;;;;;8.33;100.00;101969.03;5086062;28;20492;-59
2022/05/05 04:14:12;;;;;;;15.25;12.27;;;;;;;8.35;100.00;101973.47;5087825;28;20020;-59
2022/05/05 04:16:38;;;;;;;15.93;12.35;;;;;;;8.41;100.00;101984.19;5087793;28;20468;-59
2022/05/05 04:19:04;;;;;;;13.98;11.50;;;;;;;8.44;100.00;101980.00;5088266;28;20016;-59
2022/05/05 04:21:30;;;;;;;15.60;11.32;;;;;;;8.48;100.00;101984.53;5088143;28;20023;-59
2022/05/05 04:23:55;;;;;;;13.05;11.32;;;;;;;8.49;100.00;101979.44;5088037;28;20031;-58
2022/05/05 04:26:21;;;;;;;16.30;12.10;;;;;;;8.53;100.00;101988.28;5088827;28;20032;-59
2022/05/05 04:28:48;;;;;;;16.08;11.95;;;;;;;8.58;100.00;101986.88;5088425;28;20095;-59
2022/05/05 04:31:15;;;;;;;14.32;11.43;;;;;;;8.60;100.00;101985.28;5092391;28;20042;-59
2022/05/05 04:33:41;;;;;;;13.18;10.77;;;;;;;8.62;100.00;101988.84;5091726;28;20106;-59
2022/05/05 04:36:07;;;;;;;17.42;12.85;;;;;;;8.63;100.00;102000.97;5091993;28;20126;-58
2022/05/05 04:38:33;;;;;;;15.25;11.95;;;;;;;8.66;98.82;101995.09;5092006;28;20020;-59
2022/05/05 04:40:59;;;;;;;15.07;12.80;;;;;;;8.68;99.48;101997.75;5090990;28;20030;-57
2022/05/05 04:43:24;;;;;;;15.15;11.45;;;;;;;8.70;99.45;102001.34;5091548;28;20414;-59
2022/05/05 04:45:50;;;;;;;13.70;11.90;;;;;;;8.74;100.00;102003.31;5091905;28;20526;-58
2022/05/05 04:48:15;;;;;;;13.23;11.82;;;;;;;8.76;100.00;102001.69;5091273;28;20057;-58
2022/05/05 04:50:40;;;;;;;14.68;12.07;;;;;;;8.79;100.00;102001.88;5091838;28;20482;-58
2022/05/05 04:53:06;;;;;;;15.40;12.35;;;;;;;8.79;100.00;101996.69;5091484;28;20020;-59
2022/05/05 04:55:31;;;;;;;14.52;12.00;;;;;;;8.82;100.00;102004.63;5090752;28;20427;-59
2022/05/05 04:57:56;;;;;;;17.05;11.75;;;;;;;8.85;100.00;102006.50;5090872;28;20032;-58
2022/05/05 05:00:22;;;;;;;14.50;12.32;;;;;;;8.88;99.71;102006.69;5091382;28;20032;-59
2022/05/05 05:02:48;;;;;;;14.45;12.57;;;;;;;8.89;99.87;102004.19;5082943;28;20468;-58
2022/05/05 05:05:13;;;;;;;20.70;14.20;;;;;;;8.93;99.90;102007.84;5070158;28;20036;-58
2022/05/05 05:07:39;;;;;;;20.33;14.98;;;;;;;8.97;99.38;102016.66;5070763;28;20024;-58
2022/05/05 05:10:05;;;;;;;17.10;14.02;;;;;;;9.01;98.79;102016.91;5079179;28;20016;-59
2022/05/05 05:12:30;;;;;;;14.45;12.95;;;;;;;9.05;98.39;102012.81;5090488;28;20472;-57
2022/05/05 05:14:55;;;;;;;16.90;14.10;;;;;;;9.09;98.68;102017.34;5090673;28;20023;-59
2022/05/05 05:17:21;;;;;;;17.83;13.07;;;;;;;9.13;98.24;102019.31;5089765;28;20020;-59
2022/05/05 05:19:46;;;;;;;17.85;14.13;;;;;;;9.16;98.70;102020.28;5090303;28;20020;-59
2022/05/05 05:22:11;;;;;;;17.42;14.55;;;;;;;9.18;98.58;102026.44;5087633;28;20012;-59
2022/05/05 05:24:37;;;;;;;18.63;14.85;;;;;;;9.18;98.96;102026.44;5089401;28;20016;-58
2022/05/05 05:27:03;;;;;;;17.20;14.57;;;;;;;9.20;98.24;102024.84;5090153;28;20032;-59
2022/05/05 05:29:28;;;;;;;18.88;14.25;;;;;;;9.22;98.32;102038.75;5090209;28;20060;-59
2022/05/05 05:31:53;;;;;;;18.58;15.02;;;;;;;9.29;98.22;102037.38;5080502;28;20153;-59
2022/05/05 05:34:18;;;;;;;19.15;15.50;;;;;;;9.36;98.22;102047.28;5070129;28;20383;-58
2022/05/05 05:36:44;;;;;;;19.10;15.63;;;;;;;9.41;98.37;102037.22;5083031;28;20081;-58
2022/05/05 05:39:09;;;;;;;17.33;14.48;;;;;;;9.47;98.09;102034.94;5090410;28;20107;-57
2022/05/05 05:41:34;;;;;;;17.15;15.32;;;;;;;9.52;96.86;102035.19;5089452;28;20024;-58
2022/05/05 05:44:01;;;;;;;23.38;15.13;;;;;;;9.58;96.04;102039.03;5090339;28;20024;-59
2022/05/05 05:46:26;;;;;;;20.83;15.45;;;;;;;9.68;95.24;102044.69;5090401;28;20093;-58
2022/05/05 05:48:52;;;;;;;20.17;16.55;;;;;;;9.75;93.07;102040.78;5090218;28;20031;-59
2022/05/05 05:51:17;;;;;;;19.05;16.23;;;;;;;9.82;92.67;102048.06;5090430;28;20016;-59
2022/05/05 05:53:43;;;;;;;20.50;15.82;;;;;;;9.90;91.51;102046.78;5090147;28;20031;-59
2022/05/05 05:56:08;;;;;;;23.67;16.45;;;;;;;9.99;90.76;102041.19;5089819;28;20023;-59
2022/05/05 05:58:36;;;;;;;26.60;18.00;;;;;;;10.12;91.42;102049.63;5090340;28;20384;-59
2022/05/05 06:01:02;;;;;;;21.80;17.50;;;;;;;10.23;91.39;102045.00;5089812;28;20020;-60
2022/05/05 06:06:11;;;;;;;23.30;18.60;;;;;;;10.37;88.73;102050.91;5090303;28;20039;-60
2022/05/05 06:08:36;;;;;;;24.65;18.95;;;;;;;10.44;88.44;102053.03;5089813;28;20464;-59
2022/05/05 06:11:02;;;;;;;21.13;17.83;;;;;;;10.49;90.02;102049.00;5088654;28;20027;-60
2022/05/05 06:13:27;;;;;;;28.45;19.52;;;;;;;10.53;87.97;102056.13;5069224;28;20399;-59
2022/05/05 06:15:52;;;;;;;26.38;19.08;;;;;;;10.52;87.42;102062.09;5070017;28;20102;-58
2022/05/05 06:18:17;;;;;;;24.52;20.15;;;;;;;10.54;87.13;102055.31;5070136;28;20028;-60
2022/05/05 06:20:43;;;;;;;24.33;19.95;;;;;;;10.52;88.22;102054.31;5069267;28;20028;-60
2022/05/05 06:23:08;;;;;;;26.65;20.58;;;;;;;10.53;88.50;102063.00;5069537;28;20465;-58
2022/05/05 06:25:33;;;;;;;22.38;18.70;;;;;;;10.54;88.71;102063.06;5068663;28;20094;-60
2022/05/05 06:27:59;;;;;;;24.58;20.00;;;;;;;10.62;89.41;102063.47;5069258;28;20116;-59
2022/05/05 06:30:24;;;;;;;24.88;19.73;;;;;;;10.69;88.54;102067.28;5068974;28;20040;-60
2022/05/05 06:32:49;;;;;;;27.63;20.40;;;;;;;10.75;88.95;102072.78;5067262;28;20158;-59
2022/05/05 06:35:15;;;;;;;21.63;18.83;;;;;;;10.88;89.19;102068.22;5077613;28;20441;-58
2022/05/05 06:37:40;;;;;;;25.90;19.88;;;;;;;11.02;89.37;102067.22;5089567;28;20028;-59
2022/05/05 06:40:07;;;;;;;23.63;19.67;;;;;;;11.13;88.79;102067.75;5089334;28;20032;-60
2022/05/05 06:42:33;;;;;;;25.00;19.33;;;;;;;11.22;86.23;102069.91;5088917;28;20024;-60
2022/05/05 06:44:59;;;;;;;22.58;19.13;;;;;;;11.38;84.93;102066.34;5086621;28;21484;-60
2022/05/05 06:47:25;;;;;;;25.90;21.98;;;;;;;11.45;83.97;102067.53;5086988;28;20038;-59
2022/05/05 06:49:50;;;;;;;28.05;21.52;;;;;;;11.61;84.00;102069.16;5089267;28;20028;-58
2022/05/05 06:52:16;;;;;;;26.48;20.27;;;;;;;11.86;83.43;102069.41;5089751;28;20055;-59
2022/05/05 06:54:41;;;;;;;22.15;17.98;;;;;;;12.15;81.40;102066.38;5088749;28;20024;-59
2022/05/05 06:57:06;;;;;;;21.77;17.98;;;;;;;12.40;80.37;102068.38;5088903;28;20076;-59
2022/05/05 06:59:32;;;;;;;19.20;16.55;;;;;;;12.59;78.98;102070.06;5089138;28;20107;-58
2022/05/05 07:02:01;;;;;;;25.38;17.90;;;;;;;12.73;78.15;102068.09;5089367;28;20081;-57
2022/05/05 07:07:13;;;;;;;23.00;18.40;;;;;;;13.05;76.14;102074.56;5089614;28;20054;-58
2022/05/05 07:12:23;;;;;;;24.35;18.58;;;;;;;13.51;76.54;102075.53;5079635;28;20027;-58
2022/05/05 07:14:48;;;;;;;22.98;18.88;;;;;;;13.91;76.65;102084.03;5073170;28;20020;-60
2022/05/05 07:17:14;;;;;;;24.85;18.88;;;;;;;14.21;74.17;102086.84;5073520;28;20028;-60
2022/05/05 07:19:40;;;;;;;20.70;18.30;;;;;;;14.52;73.53;102090.56;5076204;28;20472;-60
2022/05/05 07:22:06;;;;;;;32.47;26.90;;;;;;;14.88;73.93;102097.03;5078720;28;20016;-60
2022/05/05 07:24:31;;;;;;;29.55;26.35;;;;;;;15.21;72.53;102095.50;5077687;28;20056;-59
2022/05/05 07:26:57;;;;;;;31.45;25.63;;;;;;;15.53;71.70;102095.66;5089262;28;20063;-59
2022/05/05 07:29:23;;;;;;;34.30;27.40;;;;;;;15.85;70.48;102098.38;5088355;28;20073;-60
2022/05/05 07:31:48;;;;;;;38.17;32.22;;;;;;;16.19;69.56;102098.50;5088603;28;20044;-58
2022/05/05 07:34:15;;;;;;;33.83;29.70;;;;;;;16.13;66.98;102102.69;5088691;28;20028;-60
2022/05/05 07:36:40;;;;;;;33.55;28.40;;;;;;;16.26;67.52;102098.69;5089166;28;20386;-60
2022/05/05 07:39:05;;;;;;;36.17;30.65;;;;;;;16.39;67.53;102105.13;5088983;28;20020;-59
2022/05/05 07:41:31;;;;;;;32.65;28.27;;;;;;;16.40;69.84;102107.81;5088544;28;20027;-58
2022/05/05 07:43:57;;;;;;;35.17;29.98;;;;;;;16.39;66.97;102107.75;5088527;28;20432;-60
2022/05/05 07:46:23;;;;;;;35.67;29.33;;;;;;;16.37;66.70;102106.84;5088632;28;20074;-59
2022/05/05 07:48:49;;;;;;;32.05;28.33;;;;;;;16.43;67.93;102101.78;5088390;28;20047;-60
2022/05/05 07:51:15;;;;;;;35.95;30.13;;;;;;;16.41;66.76;102109.59;5088534;28;20052;-60
2022/05/05 07:53:40;;;;;;;33.78;29.98;;;;;;;16.51;67.31;102105.50;5088851;28;20027;-60
2022/05/05 07:56:05;;;;;;;34.25;29.20;;;;;;;16.60;68.58;102111.81;5096246;28;20024;-59
2022/05/05 07:58:30;;;;;;;35.97;29.90;;;;;;;16.54;67.74;102109.91;5107048;28;20139;-60
2022/05/05 08:00:56;;;;;;;33.70;30.15;;;;;;;16.45;66.66;102105.31;5107953;28;20072;-60
2022/05/05 08:03:21;;;;;;;32.20;28.73;;;;;;;16.30;68.98;102111.88;5108382;28;20446;-60
2022/05/05 08:05:47;;;;;;;33.78;27.88;;;;;;;16.23;68.99;102115.16;5112116;28;20024;-60
2022/05/05 08:08:13;;;;;;;35.45;29.70;;;;;;;16.10;67.84;102119.16;5112302;28;20024;-58
2022/05/05 08:10:38;;;;;;;37.53;28.83;;;;;;;15.95;68.21;102116.94;5112130;28;20090;-60
2022/05/05 08:13:04;;;;;;;34.10;28.33;;;;;;;15.87;69.21;102121.03;5112797;28;20482;-60
2022/05/05 08:15:30;;;;;;;32.72;29.25;;;;;;;15.78;70.97;102127.78;5111785;28;20055;-60
2022/05/05 08:17:55;;;;;;;33.90;28.88;;;;;;;15.73;70.81;102124.13;5112021;28;20076;-60
2022/05/05 08:20:21;;;;;;;33.88;30.02;;;;;;;15.64;70.00;102129.06;5112124;28;20454;-60
2022/05/05 08:22:46;;;;;;;31.27;27.98;;;;;;;15.62;71.37;102129.03;5109736;28;20181;-60
2022/05/05 08:30:39;;;;;;;32.42;28.92;;;;;;;15.60;71.17;102134.19;5111590;28;20027;-59
2022/05/05 08:33:05;;;;;;;35.33;30.25;;;;;;;15.56;69.89;102134.94;5110891;28;20043;-60
2022/05/05 08:35:31;;;;;;;34.53;30.52;;;;;;;15.53;71.66;102140.06;5111453;27;20027;-59
2022/05/05 08:37:56;;;;;;;33.42;29.73;;;;;;;15.51;72.79;102143.47;5111897;28;20031;-60
2022/05/05 08:40:23;;;;;;;33.63;29.88;;;;;;;15.51;71.75;102139.13;5111905;28;20365;-60
2022/05/05 08:42:49;;;;;;;35.28;31.20;;;;;;;15.51;70.88;102144.34;5104266;28;20376;-60
2022/05/05 08:45:15;;;;;;;33.97;30.38;;;;;;;15.55;71.90;102151.47;5079446;28;20016;-60
2022/05/05 08:47:44;;;;;;;36.63;30.90;;;;;;;15.61;73.00;102151.63;5087669;28;20115;-60
2022/05/05 08:50:10;;;;;;;33.58;29.70;;;;;;;15.68;71.65;102151.84;5085086;28;20479;-59
2022/05/05 08:52:44;;;;;;;36.55;30.27;;;;;;;15.73;70.81;102151.16;5089188;28;20020;-60
2022/05/05 08:55:14;;;;;;;31.38;28.08;;;;;;;15.79;70.80;102160.03;5088805;28;20032;-60
2022/05/05 08:57:39;;;;;;;35.85;30.88;;;;;;;15.85;70.57;102160.19;5091700;28;20031;-58
2022/05/05 09:00:05;;;;;;;39.10;31.17;;;;;;;15.92;69.68;102156.94;5092067;28;20028;-60
2022/05/05 09:02:31;;;;;;;36.67;31.23;;;;;;;15.91;69.76;102157.78;5110767;28;20429;-59
2022/05/05 09:04:56;;;;;;;39.97;33.38;;;;;;;15.99;71.13;102152.81;5102485;28;20046;-60
2022/05/05 09:07:21;;;;;;;36.22;31.20;;;;;;;16.13;70.96;102149.75;5090184;28;20038;-60
2022/05/05 09:09:49;;;;;;;35.35;31.50;;;;;;;16.25;70.29;102159.66;5109728;28;20168;-59
2022/05/05 09:12:17;;;;;;;34.97;31.13;;;;;;;16.40;69.42;102161.84;5090275;28;20016;-60
2022/05/05 09:14:53;;;;;;;36.28;31.98;;;;;;;16.50;68.79;102158.66;5090368;28;20089;-60
2022/05/05 09:17:23;;;;;;;34.38;30.17;;;;;;;16.64;68.17;102159.03;5087911;28;20016;-60
2022/05/05 09:19:51;;;;;;;35.00;30.92;;;;;;;16.82;68.83;102162.13;5085902;28;20387;-60
2022/05/05 09:22:19;;;;;;;34.63;30.83;;;;;;;16.91;67.78;102168.47;5091582;28;20016;-60
2022/05/05 09:24:49;;;;;;;34.05;30.42;;;;;;;17.01;68.42;102161.78;5090824;28;20020;-60
2022/05/05 09:27:33;;;;;;;36.38;32.42;;;;;;;17.05;67.16;102165.38;5090664;28;20494;-60
2022/05/05 09:30:12;;;;;;;35.53;31.70;;;;;;;17.07;66.06;102165.41;5090431;28;20020;-60
2022/05/05 09:32:42;;;;;;;38.92;34.08;;;;;;;17.00;65.13;102161.75;5089847;28;20552;-60
2022/05/05 09:35:09;;;;;;;38.83;32.78;;;;;;;16.97;65.17;102164.25;5090915;28;20028;-61
2022/05/05 09:37:35;;;;;;;38.33;33.85;;;;;;;16.93;65.22;102171.13;5088211;28;20195;-60
2022/05/05 09:40:02;;;;;;;37.15;32.85;;;;;;;16.88;66.47;102167.50;5088005;28;20016;-60
2022/05/05 09:42:37;;;;;;;38.17;34.17;;;;;;;16.84;65.52;102170.91;5088990;28;20383;-60
2022/05/05 09:45:13;;;;;;;36.92;31.90;;;;;;;16.83;65.94;102177.88;5089788;28;20043;-60
2022/05/05 09:47:41;;;;;;;37.58;32.78;;;;;;;16.83;67.23;102177.88;5091169;28;20492;-61
2022/05/05 09:50:07;;;;;;;36.65;32.83;;;;;;;16.84;66.83;102176.16;5089831;28;20024;-60
2022/05/05 09:58:08;;;;;;;37.95;34.03;;;;;;;16.62;65.06;102180.78;5090979;28;20051;-60
2022/05/05 10:05:51;;;;;;;36.33;32.55;;;;;;;16.53;67.15;102187.50;5087706;28;20059;-60
2022/05/05 10:08:22;;;;;;;37.85;32.65;;;;;;;16.62;65.44;102183.41;5089558;28;20468;-60
2022/05/05 10:10:49;;;;;;;39.05;34.60;;;;;;;16.75;66.04;102188.13;5086060;28;20027;-60
2022/05/05 10:13:20;;;;;;;39.25;34.50;;;;;;;16.91;64.69;102178.06;5090391;28;20409;-60
2022/05/05 10:15:46;;;;;;;;;;;;;;;17.02;64.87;102187.09;5090107;28;20024;-60
2022/05/05 10:18:12;;;;;;;38.42;34.30;;;;;;;17.24;65.56;102187.69;5090524;28;20249;-60
2022/05/05 10:20:37;;;;;;;38.47;34.55;;;;;;;17.34;61.69;102190.56;5089852;28;20111;-60
2022/05/05 10:23:27;;;;;;;39.78;34.45;;;;;;;17.55;62.18;102171.84;5083702;28;20028;-60
2022/05/05 10:25:54;;;;;;;37.55;33.22;;;;;;;17.69;61.13;102179.16;5089187;28;20028;-60
2022/05/05 10:28:47;;;;;;;38.28;34.38;;;;;;;17.63;59.67;102175.53;5089109;28;20824;-58
2022/05/05 10:31:37;;;;;;;37.10;33.30;;;;;;;17.68;61.64;102178.28;5082682;28;20039;-60
2022/05/05 10:34:07;;;;;;;37.30;33.30;;;;;;;17.85;61.62;102176.03;5086224;28;20024;-60
2022/05/05 10:36:34;;;;;;;38.40;34.33;;;;;;;17.99;60.78;102171.09;5089143;28;20032;-61
2022/05/05 10:39:16;;;;;;;38.95;34.72;;;;;;;17.91;58.61;102179.66;5087451;28;20500;-60
2022/05/05 10:41:41;;;;;;;38.40;34.35;;;;;;;17.98;60.00;102176.31;5086200;28;20987;-59
2022/05/05 10:44:16;;;;;;;36.67;32.92;;;;;;;17.88;58.50;102180.50;5085983;28;20016;-60
2022/05/05 10:46:53;;;;;;;36.92;32.80;;;;;;;18.09;61.58;102174.84;5083534;28;20040;-59
2022/05/05 10:49:33;;;;;;;34.97;31.38;;;;;;;18.36;62.65;102172.78;5088567;28;20020;-59
2022/05/05 10:52:10;;;;;;;35.38;31.77;;;;;;;18.62;62.41;102175.03;5087459;28;20535;-61
2022/05/05 10:54:44;;;;;;;34.90;31.30;;;;;;;18.82;61.27;102178.06;5086958;28;20062;-61
2022/05/05 10:57:24;;;;;;;35.45;31.92;;;;;;;19.12;60.46;102170.75;5089306;28;20467;-61
2022/05/05 11:00:15;;;;;;;36.67;32.67;;;;;;;19.38;57.37;102178.16;5089253;28;20035;-61
2022/05/05 11:03:00;;;;;;;35.40;31.88;;;;;;;19.36;57.38;102173.75;5088840;28;20058;-60
2022/05/05 11:05:33;;;;;;;37.00;33.15;;;;;;;19.41;57.37;102178.22;5088984;28;20101;-61
2022/05/05 11:08:08;;;;;;;34.95;31.35;;;;;;;19.48;58.53;102184.44;5089169;28;20024;-60
2022/05/05 11:13:39;;;;;;;38.97;35.03;;;;;;;19.30;55.48;102174.53;5087665;28;20066;-60
2022/05/05 11:22:19;;;;;;;37.60;33.63;;;;;;;18.86;59.74;102178.09;5084981;28;20039;-61
2022/05/05 11:24:49;;;;;;;36.13;32.53;;;;;;;18.85;55.92;102177.25;5090597;28;20020;-60
2022/05/05 11:27:16;;;;;;;33.85;30.52;;;;;;;18.51;55.56;102172.19;5084783;28;20051;-61
2022/05/05 11:29:53;;;;;;;31.25;28.10;;;;;;;18.55;57.20;102168.78;5087991;28;20027;-61
2022/05/05 11:32:20;;;;;;;30.92;27.90;;;;;;;18.52;56.02;102179.22;5098153;28;20047;-60
2022/05/05 11:34:47;;;;;;;33.38;30.02;;;;;;;18.53;55.08;102169.63;5106473;28;20047;-61
2022/05/05 11:37:13;;;;;;;32.85;29.48;;;;;;;18.71;57.72;102169.06;5099693;28;20073;-59
2022/05/05 11:39:39;;;;;;;29.10;26.23;;;;;;;19.07;58.42;102180.22;5086203;28;20024;-60
2022/05/05 11:42:06;;;;;;;29.05;26.30;;;;;;;19.36;54.96;102169.38;5088815;28;20026;-60
2022/05/05 11:44:43;;;;;;;29.85;26.85;;;;;;;19.63;54.60;102165.41;5087302;28;20027;-60
2022/05/05 11:47:20;;;;;;;28.35;25.30;;;;;;;19.96;55.78;102172.88;5080345;28;20379;-60
2022/05/05 11:49:47;;;;;;;28.23;25.52;;;;;;;20.22;54.72;102162.72;5086312;28;20035;-60
2022/05/05 11:52:17;;;;;;;27.50;24.63;;;;;;;20.50;56.00;102172.72;5087404;28;20487;-61
2022/05/05 11:54:51;;;;;;;25.67;22.90;;;;;;;20.73;53.55;102166.81;5082523;28;20036;-60
2022/05/05 11:57:34;;;;;;;26.13;23.58;;;;;;;20.67;49.40;102162.34;5107833;28;20015;-59
2022/05/05 12:02:44;;;;;;;36.42;24.50;;;;;;;20.56;52.69;102166.66;5108046;28;20085;-61